Time,TemperatureF,DewpointF,PressureIn,WindDirection,WindDirectionDegrees,WindSpeedMPH,WindSpeedGustMPH,Humidity,HourlyPrecipIn,Conditions,Clouds,dailyrainin,SolarRadiationWatts/m^2,SoftwareType,DateUTC
2013-10-15 00:11:00,39.6,28.0,32.01,NE,34,1.0,3.0,63,0.00,,,0.00,0,weatherlink.com 1.10,2013-10-15 06:11:00,
2013-10-15 00:26:00,40.4,27.0,32.01,NE,55,3.0,5.0,60,0.00,,,0.00,0,weatherlink.com 1.10,2013-10-15 06:26:00,
2013-10-15 00:41:00,39.8,27.0,32.01,ESE,102,3.0,6.0,60,0.00,,,0.00,0,weatherlink.com 1.10,2013-10-15 06:41:00,
2013-10-15 00:56:00,38.4,27.0,32.01,ESE,117,3.0,6.0,63,0.00,,,0.00,0,weatherlink.com 1.10,2013-10-15 06:56:00,
2013-10-15 01:11:00,38.5,27.0,32.01,ESE,121,0.0,2.0,63,0.00,,,0.00,0,weatherlink.com 1.10,2013-10-15 07:11:00,
2013-10-15 01:26:00,38.7,27.0,32.01,ESE,121,1.0,2.0,63,0.00,,,0.00,0,weatherlink.com 1.10,2013-10-15 07:26:00,
2013-10-15 01:41:00,38.4,27.0,32.01,ESE,121,0.0,1.0,63,0.00,,,0.00,0,weatherlink.com 1.10,2013-10-15 07:41:00,
2013-10-15 01:56:00,38.1,27.0,32.01,ESE,121,0.0,2.0,64,0.00,,,0.00,0,weatherlink.com 1.10,2013-10-15 07:56:00,
2013-10-15 02:11:00,37.5,27.0,32.02,ESE,121,0.0,0.0,65,0.00,,,0.00,0,weatherlink.com 1.10,2013-10-15 08:11:00,
2013-10-15 02:26:00,36.5,26.0,32.02,ESE,121,3.0,3.0,67,0.00,,,0.00,0,weatherlink.com 1.10,2013-10-15 08:26:00,
2013-10-15 02:41:00,36.0,27.0,32.02,ESE,121,1.0,3.0,69,0.00,,,0.00,0,weatherlink.com 1.10,2013-10-15 08:41:00,
2013-10-15 02:57:00,35.9,27.0,32.03,SE,136,0.0,4.0,70,0.00,,,0.00,0,weatherlink.com 1.10,2013-10-15 08:57:00,
2013-10-15 03:12:00,35.0,27.0,32.03,SE,136,2.0,2.0,72,0.00,,,0.00,0,weatherlink.com 1.10,2013-10-15 09:12:00,
2013-10-15 03:27:00,36.5,28.0,32.03,SE,136,2.0,3.0,70,0.00,,,0.00,0,weatherlink.com 1.10,2013-10-15 09:27:00,
2013-10-15 03:42:00,36.1,27.0,32.03,SE,136,0.0,0.0,69,0.00,,,0.00,0,weatherlink.com 1.10,2013-10-15 09:42:00,
2013-10-15 03:57:00,34.7,27.0,32.03,SE,136,0.0,1.0,72,0.00,,,0.00,0,weatherlink.com 1.10,2013-10-15 09:57:00,
2013-10-15 04:12:00,34.2,27.0,32.03,SE,136,0.0,0.0,75,0.00,,,0.00,0,weatherlink.com 1.10,2013-10-15 10:12:00,
2013-10-15 04:27:00,34.1,27.0,32.04,SE,137,2.0,3.0,74,0.00,,,0.00,0,weatherlink.com 1.10,2013-10-15 10:27:00,
2013-10-15 04:42:00,33.7,27.0,32.04,SE,135,4.0,5.0,76,0.00,,,0.00,0,weatherlink.com 1.10,2013-10-15 10:42:00,
2013-10-15 04:57:00,33.9,27.0,32.04,SE,140,4.0,5.0,77,0.00,,,0.00,0,weatherlink.com 1.10,2013-10-15 10:57:00,
2013-10-15 05:12:00,33.0,27.0,32.04,SE,146,1.0,4.0,80,0.00,,,0.00,0,weatherlink.com 1.10,2013-10-15 11:12:00,
2013-10-15 05:27:00,31.8,26.0,32.05,SSE,147,0.0,4.0,80,0.00,,,0.00,0,weatherlink.com 1.10,2013-10-15 11:27:00,
2013-10-15 05:42:00,31.9,28.0,32.05,SSE,147,2.0,3.0,84,0.00,,,0.00,0,weatherlink.com 1.10,2013-10-15 11:42:00,
2013-10-15 05:57:00,32.6,27.0,32.05,SE,146,2.0,4.0,79,0.00,,,0.00,0,weatherlink.com 1.10,2013-10-15 11:57:00,
2013-10-15 06:12:00,32.1,27.0,32.05,SE,146,3.0,3.0,80,0.00,,,0.00,0,weatherlink.com 1.10,2013-10-15 12:12:00,
2013-10-15 06:27:00,31.3,26.0,32.06,SE,146,0.0,3.0,82,0.00,,,0.00,0,weatherlink.com 1.10,2013-10-15 12:27:00,
2013-10-15 06:42:00,31.1,27.0,32.05,SE,146,3.0,3.0,83,0.00,,,0.00,0,weatherlink.com 1.10,2013-10-15 12:42:00,
2013-10-15 06:57:00,31.7,27.0,32.05,SE,145,1.0,3.0,82,0.00,,,0.00,0,weatherlink.com 1.10,2013-10-15 12:57:00,
2013-10-15 07:12:00,31.7,27.0,32.05,SE,145,0.0,2.0,81,0.00,,,0.00,0,weatherlink.com 1.10,2013-10-15 13:12:00,
2013-10-15 07:27:00,31.1,26.0,32.05,SE,146,1.0,3.0,81,0.00,,,0.00,0,weatherlink.com 1.10,2013-10-15 13:27:00,
2013-10-15 07:42:00,30.6,26.0,32.05,SE,146,2.0,3.0,82,0.00,,,0.00,0,weatherlink.com 1.10,2013-10-15 13:42:00,
2013-10-15 07:57:00,29.9,25.0,32.05,SE,146,0.0,3.0,83,0.00,,,0.00,5,weatherlink.com 1.10,2013-10-15 13:57:00,
2013-10-15 08:12:00,29.4,25.0,32.06,SE,146,1.0,2.0,83,0.00,,,0.00,12,weatherlink.com 1.10,2013-10-15 14:12:00,
2013-10-15 08:27:00,28.7,25.0,32.06,SE,146,1.0,2.0,85,0.00,,,0.00,18,weatherlink.com 1.10,2013-10-15 14:27:00,
2013-10-15 08:42:00,28.7,25.0,32.07,SE,146,1.0,2.0,87,0.00,,,0.00,21,weatherlink.com 1.10,2013-10-15 14:42:00,
2013-10-15 08:57:00,28.6,25.0,32.07,SE,146,0.0,3.0,87,0.00,,,0.00,25,weatherlink.com 1.10,2013-10-15 14:57:00,
2013-10-15 09:12:00,28.5,25.0,32.07,SE,146,0.0,0.0,87,0.00,,,0.00,26,weatherlink.com 1.10,2013-10-15 15:12:00,
2013-10-15 09:27:00,29.3,26.0,32.07,SE,146,0.0,1.0,87,0.00,,,0.00,139,weatherlink.com 1.10,2013-10-15 15:27:00,
2013-10-15 09:42:00,30.3,27.0,32.07,SE,146,0.0,2.0,86,0.00,,,0.00,186,weatherlink.com 1.10,2013-10-15 15:42:00,
2013-10-15 09:58:00,31.9,27.0,32.06,SSE,151,2.0,5.0,83,0.00,,,0.00,225,weatherlink.com 1.10,2013-10-15 15:58:00,
2013-10-15 10:13:00,32.4,28.0,32.06,WSW,239,0.0,7.0,83,0.00,,,0.00,264,weatherlink.com 1.10,2013-10-15 16:13:00,
2013-10-15 10:28:00,32.8,28.0,32.05,SW,217,3.0,8.0,83,0.00,,,0.00,301,weatherlink.com 1.10,2013-10-15 16:28:00,
2013-10-15 10:43:00,33.4,29.0,32.05,SSW,203,4.0,6.0,83,0.00,,,0.00,336,weatherlink.com 1.10,2013-10-15 16:43:00,
2013-10-15 10:58:00,35.3,30.0,32.05,SW,215,8.0,10.0,80,0.00,,,0.00,373,weatherlink.com 1.10,2013-10-15 16:58:00,
2013-10-15 11:13:00,36.5,30.0,32.03,SSW,213,5.0,11.0,76,0.00,,,0.00,406,weatherlink.com 1.10,2013-10-15 17:13:00,
2013-10-15 11:28:00,37.8,30.0,32.03,SW,217,10.0,10.0,74,0.00,,,0.00,434,weatherlink.com 1.10,2013-10-15 17:28:00,
2013-10-15 11:43:00,38.7,29.0,32.02,SW,220,10.0,12.0,69,0.00,,,0.00,459,weatherlink.com 1.10,2013-10-15 17:43:00,
2013-10-15 11:58:00,40.3,30.0,32.01,SSW,213,8.0,15.0,66,0.00,,,0.00,494,weatherlink.com 1.10,2013-10-15 17:58:00,
2013-10-15 12:13:00,40.8,30.0,32.00,SSW,207,10.0,15.0,65,0.00,,,0.00,517,weatherlink.com 1.10,2013-10-15 18:13:00,
2013-10-15 12:28:00,41.4,30.0,31.99,SW,221,9.0,13.0,64,0.00,,,0.00,533,weatherlink.com 1.10,2013-10-15 18:28:00,
2013-10-15 12:43:00,42.2,30.0,31.99,SSW,200,9.0,14.0,62,0.00,,,0.00,548,weatherlink.com 1.10,2013-10-15 18:43:00,
2013-10-15 12:58:00,43.2,30.0,31.98,SSW,205,7.0,11.0,59,0.00,,,0.00,564,weatherlink.com 1.10,2013-10-15 18:58:00,
2013-10-15 13:13:00,44.3,30.0,31.97,SSW,198,8.0,14.0,57,0.00,,,0.00,571,weatherlink.com 1.10,2013-10-15 19:13:00,
2013-10-15 13:28:00,44.1,30.0,31.95,SW,221,7.0,9.0,57,0.00,,,0.00,585,weatherlink.com 1.10,2013-10-15 19:28:00,
2013-10-15 13:43:00,44.5,29.0,31.94,SW,233,6.0,9.0,55,0.00,,,0.00,591,weatherlink.com 1.10,2013-10-15 19:43:00,
2013-10-15 13:58:00,45.4,29.0,31.94,WSW,246,2.0,9.0,53,0.00,,,0.00,592,weatherlink.com 1.10,2013-10-15 19:58:00,
2013-10-15 14:13:00,45.8,29.0,31.93,WSW,239,5.0,7.0,53,0.00,,,0.00,589,weatherlink.com 1.10,2013-10-15 20:13:00,
2013-10-15 14:29:00,46.9,28.0,31.92,West,264,4.0,7.0,48,0.00,,,0.00,585,weatherlink.com 1.10,2013-10-15 20:29:00,
2013-10-15 14:44:00,46.6,28.0,31.91,NNW,328,3.0,7.0,48,0.00,,,0.00,575,weatherlink.com 1.10,2013-10-15 20:44:00,
2013-10-15 14:59:00,47.6,28.0,31.90,NW,314,1.0,5.0,46,0.00,,,0.00,563,weatherlink.com 1.10,2013-10-15 20:59:00,
2013-10-15 15:14:00,47.7,27.0,31.89,SW,229,2.0,8.0,44,0.00,,,0.00,545,weatherlink.com 1.10,2013-10-15 21:14:00,
2013-10-15 15:29:00,48.6,27.0,31.88,WSW,239,2.0,7.0,43,0.00,,,0.00,531,weatherlink.com 1.10,2013-10-15 21:29:00,
2013-10-15 15:44:00,48.7,27.0,31.88,WSW,254,3.0,6.0,43,0.00,,,0.00,506,weatherlink.com 1.10,2013-10-15 21:44:00,
2013-10-15 15:59:00,48.9,27.0,31.87,SW,234,3.0,7.0,43,0.00,,,0.00,482,weatherlink.com 1.10,2013-10-15 21:59:00,
2013-10-15 16:14:00,49.7,28.0,31.87,WSW,246,2.0,8.0,43,0.00,,,0.00,454,weatherlink.com 1.10,2013-10-15 22:14:00,
2013-10-15 16:29:00,50.3,28.0,31.86,West,264,4.0,5.0,42,0.00,,,0.00,418,weatherlink.com 1.10,2013-10-15 22:29:00,
2013-10-15 16:44:00,49.1,27.0,31.86,NW,314,1.0,6.0,42,0.00,,,0.00,385,weatherlink.com 1.10,2013-10-15 22:44:00,
2013-10-15 16:59:00,49.0,27.0,31.85,NW,315,0.0,4.0,43,0.00,,,0.00,362,weatherlink.com 1.10,2013-10-15 22:59:00,
2013-10-15 17:14:00,49.6,27.0,31.84,NW,315,2.0,4.0,42,0.00,,,0.00,306,weatherlink.com 1.10,2013-10-15 23:14:00,
2013-10-15 17:29:00,49.0,27.0,31.84,NW,315,4.0,5.0,43,0.00,,,0.00,264,weatherlink.com 1.10,2013-10-15 23:29:00,
2013-10-15 17:44:00,48.8,28.0,31.84,NW,315,3.0,4.0,44,0.00,,,0.00,218,weatherlink.com 1.10,2013-10-15 23:44:00,
2013-10-15 17:59:00,49.2,29.0,31.84,NW,315,2.0,3.0,45,0.00,,,0.00,167,weatherlink.com 1.10,2013-10-15 23:59:00,
2013-10-15 18:14:00,49.5,28.0,31.83,NW,315,0.0,2.0,44,0.00,,,0.00,84,weatherlink.com 1.10,2013-10-16 00:14:00,
2013-10-15 18:29:00,48.7,28.0,31.82,NW,315,0.0,1.0,45,0.00,,,0.00,14,weatherlink.com 1.10,2013-10-16 00:29:00,
2013-10-15 18:44:00,46.6,28.0,31.82,NW,315,0.0,1.0,48,0.00,,,0.00,5,weatherlink.com 1.10,2013-10-16 00:44:00,
2013-10-15 18:59:00,45.7,26.0,31.82,NW,315,0.0,2.0,47,0.00,,,0.00,0,weatherlink.com 1.10,2013-10-16 00:59:00,
2013-10-15 19:14:00,45.5,26.0,31.82,NW,315,0.0,1.0,47,0.00,,,0.00,0,weatherlink.com 1.10,2013-10-16 01:14:00,
2013-10-15 19:29:00,45.0,26.0,31.82,NW,315,2.0,3.0,48,0.00,,,0.00,0,weatherlink.com 1.10,2013-10-16 01:29:00,
2013-10-15 19:44:00,44.9,26.0,31.82,NW,315,0.0,3.0,48,0.00,,,0.00,0,weatherlink.com 1.10,2013-10-16 01:44:00,
2013-10-15 19:59:00,44.9,27.0,31.82,NW,315,2.0,4.0,49,0.00,,,0.00,0,weatherlink.com 1.10,2013-10-16 01:59:00,
2013-10-15 20:14:00,44.6,26.0,31.82,NW,315,1.0,3.0,49,0.00,,,0.00,0,weatherlink.com 1.10,2013-10-16 02:14:00,
2013-10-15 20:29:00,44.3,27.0,31.82,NW,315,0.0,2.0,50,0.00,,,0.00,0,weatherlink.com 1.10,2013-10-16 02:29:00,
2013-10-15 20:44:00,43.1,26.0,31.82,NW,315,4.0,4.0,52,0.00,,,0.00,0,weatherlink.com 1.10,2013-10-16 02:44:00,
2013-10-15 20:59:00,42.9,27.0,31.82,NNW,340,0.0,6.0,53,0.00,,,0.00,0,weatherlink.com 1.10,2013-10-16 02:59:00,
2013-10-15 21:14:00,43.6,26.0,31.82,NNW,340,0.0,2.0,51,0.00,,,0.00,0,weatherlink.com 1.10,2013-10-16 03:14:00,
2013-10-15 21:29:00,42.6,26.0,31.82,NNW,340,2.0,4.0,53,0.00,,,0.00,0,weatherlink.com 1.10,2013-10-16 03:29:00,
2013-10-15 21:44:00,42.2,26.0,31.82,NNW,340,1.0,4.0,54,0.00,,,0.00,0,weatherlink.com 1.10,2013-10-16 03:44:00,
2013-10-15 21:59:00,41.9,26.0,31.81,NNW,340,1.0,2.0,54,0.00,,,0.00,0,weatherlink.com 1.10,2013-10-16 03:59:00,
2013-10-15 22:14:00,42.0,27.0,31.82,North,351,3.0,7.0,55,0.00,,,0.00,0,weatherlink.com 1.10,2013-10-16 04:14:00,
2013-10-15 22:29:00,41.6,26.0,31.82,North,351,0.0,3.0,55,0.00,,,0.00,0,weatherlink.com 1.10,2013-10-16 04:29:00,
2013-10-15 22:44:00,41.5,27.0,31.82,North,351,0.0,1.0,56,0.00,,,0.00,0,weatherlink.com 1.10,2013-10-16 04:44:00,
2013-10-15 22:59:00,41.1,27.0,31.82,North,351,0.0,2.0,57,0.00,,,0.00,0,weatherlink.com 1.10,2013-10-16 04:59:00,
2013-10-15 23:14:00,41.1,26.0,31.81,North,351,0.0,2.0,56,0.00,,,0.00,0,weatherlink.com 1.10,2013-10-16 05:14:00,
2013-10-15 23:29:00,41.0,26.0,31.81,North,351,0.0,3.0,56,0.00,,,0.00,0,weatherlink.com 1.10,2013-10-16 05:29:00,
2013-10-15 23:44:00,40.2,26.0,31.81,North,351,0.0,0.0,58,0.00,,,0.00,0,weatherlink.com 1.10,2013-10-16 05:44:00,
2013-10-15 23:59:00,40.4,26.0,31.81,North,351,0.0,2.0,57,0.00,,,0.00,0,weatherlink.com 1.10,2013-10-16 05:59:00,